sensor_id;sensor_type;location;lat;lon;timestamp;temperature;humidity
2465;DHT22;1244;54.326;10.074;2023-02-03T00:00:15;4.00;99.90
2465;DHT22;1244;54.326;10.074;2023-02-03T00:02:41;4.00;99.90
2465;DHT22;1244;54.326;10.074;2023-02-03T00:05:07;4.00;99.90
2465;DHT22;1244;54.326;10.074;2023-02-03T00:07:32;4.10;99.90
2465;DHT22;1244;54.326;10.074;2023-02-03T00:09:59;4.10;99.90
2465;DHT22;1244;54.326;10.074;2023-02-03T00:12:24;4.10;99.90
2465;DHT22;1244;54.326;10.074;2023-02-03T00:14:50;4.10;99.90
2465;DHT22;1244;54.326;10.074;2023-02-03T00:17:15;4.10;99.90
2465;DHT22;1244;54.326;10.074;2023-02-03T00:19:41;4.20;99.90
2465;DHT22;1244;54.326;10.074;2023-02-03T00:22:06;4.20;99.90
2465;DHT22;1244;54.326;10.074;2023-02-03T00:24:32;4.20;99.90
2465;DHT22;1244;54.326;10.074;2023-02-03T00:26:57;4.30;99.90
2465;DHT22;1244;54.326;10.074;2023-02-03T00:29:23;4.40;99.90
2465;DHT22;1244;54.326;10.074;2023-02-03T00:31:53;4.40;99.90
2465;DHT22;1244;54.326;10.074;2023-02-03T00:34:19;4.40;99.90
2465;DHT22;1244;54.326;10.074;2023-02-03T00:36:45;4.50;99.90
2465;DHT22;1244;54.326;10.074;2023-02-03T00:39:14;4.50;99.90
2465;DHT22;1244;54.326;10.074;2023-02-03T00:41:40;4.60;99.90
2465;DHT22;1244;54.326;10.074;2023-02-03T00:44:06;4.60;99.90
2465;DHT22;1244;54.326;10.074;2023-02-03T00:46:31;4.70;99.90
2465;DHT22;1244;54.326;10.074;2023-02-03T00:48:57;4.80;99.90
2465;DHT22;1244;54.326;10.074;2023-02-03T00:51:22;4.80;99.90
2465;DHT22;1244;54.326;10.074;2023-02-03T00:53:48;4.90;99.90
2465;DHT22;1244;54.326;10.074;2023-02-03T00:56:13;5.00;99.90
2465;DHT22;1244;54.326;10.074;2023-02-03T00:58:39;5.20;99.90
2465;DHT22;1244;54.326;10.074;2023-02-03T01:01:05;5.30;99.90
2465;DHT22;1244;54.326;10.074;2023-02-03T01:03:31;5.50;99.90
2465;DHT22;1244;54.326;10.074;2023-02-03T01:06:11;5.60;99.90
2465;DHT22;1244;54.326;10.074;2023-02-03T01:08:37;5.70;99.90
2465;DHT22;1244;54.326;10.074;2023-02-03T01:11:11;5.70;99.90
2465;DHT22;1244;54.326;10.074;2023-02-03T01:13:37;5.80;99.90
2465;DHT22;1244;54.326;10.074;2023-02-03T01:16:07;5.80;99.90
2465;DHT22;1244;54.326;10.074;2023-02-03T01:18:33;5.90;99.90
2465;DHT22;1244;54.326;10.074;2023-02-03T01:21:04;6.00;99.90
2465;DHT22;1244;54.326;10.074;2023-02-03T01:23:30;6.10;99.90
2465;DHT22;1244;54.326;10.074;2023-02-03T01:25:56;6.10;99.90
2465;DHT22;1244;54.326;10.074;2023-02-03T01:28:21;6.10;99.90
2465;DHT22;1244;54.326;10.074;2023-02-03T01:30:47;6.10;99.90
2465;DHT22;1244;54.326;10.074;2023-02-03T01:33:12;6.20;99.90
2465;DHT22;1244;54.326;10.074;2023-02-03T01:35:38;6.10;99.90
2465;DHT22;1244;54.326;10.074;2023-02-03T01:38:03;6.20;99.90
2465;DHT22;1244;54.326;10.074;2023-02-03T01:40:29;6.20;99.90
2465;DHT22;1244;54.326;10.074;2023-02-03T01:42:54;6.20;99.90
2465;DHT22;1244;54.326;10.074;2023-02-03T01:45:20;6.20;99.90
2465;DHT22;1244;54.326;10.074;2023-02-03T01:47:54;6.30;99.90
2465;DHT22;1244;54.326;10.074;2023-02-03T01:50:25;6.30;99.90
2465;DHT22;1244;54.326;10.074;2023-02-03T01:52:57;6.30;99.90
2465;DHT22;1244;54.326;10.074;2023-02-03T01:55:27;6.30;99.90
2465;DHT22;1244;54.326;10.074;2023-02-03T01:58:00;6.30;99.90
2465;DHT22;1244;54.326;10.074;2023-02-03T02:00:27;6.30;99.90
2465;DHT22;1244;54.326;10.074;2023-02-03T02:02:53;6.40;99.90
2465;DHT22;1244;54.326;10.074;2023-02-03T02:07:56;6.40;99.90
2465;DHT22;1244;54.326;10.074;2023-02-03T02:10:22;6.40;99.90
2465;DHT22;1244;54.326;10.074;2023-02-03T02:12:48;6.30;99.90
2465;DHT22;1244;54.326;10.074;2023-02-03T02:15:14;6.40;99.90
2465;DHT22;1244;54.326;10.074;2023-02-03T02:18:12;6.40;99.90
2465;DHT22;1244;54.326;10.074;2023-02-03T02:24:09;6.40;99.90
2465;DHT22;1244;54.326;10.074;2023-02-03T02:26:53;6.40;99.90
2465;DHT22;1244;54.326;10.074;2023-02-03T02:29:34;6.40;99.90
2465;DHT22;1244;54.326;10.074;2023-02-03T02:32:13;6.40;99.90
2465;DHT22;1244;54.326;10.074;2023-02-03T02:34:58;6.40;99.90
2465;DHT22;1244;54.326;10.074;2023-02-03T02:40:13;6.40;99.90
2465;DHT22;1244;54.326;10.074;2023-02-03T02:42:45;6.40;99.90
2465;DHT22;1244;54.326;10.074;2023-02-03T02:45:21;6.40;99.90
2465;DHT22;1244;54.326;10.074;2023-02-03T02:47:56;6.40;99.90
2465;DHT22;1244;54.326;10.074;2023-02-03T02:50:26;6.40;99.90
2465;DHT22;1244;54.326;10.074;2023-02-03T02:52:53;6.50;99.90
2465;DHT22;1244;54.326;10.074;2023-02-03T02:55:25;6.40;99.90
2465;DHT22;1244;54.326;10.074;2023-02-03T02:57:59;6.40;99.90
2465;DHT22;1244;54.326;10.074;2023-02-03T03:00:29;6.40;99.90
2465;DHT22;1244;54.326;10.074;2023-02-03T03:02:55;6.40;99.90
2465;DHT22;1244;54.326;10.074;2023-02-03T03:05:22;6.40;99.90
2465;DHT22;1244;54.326;10.074;2023-02-03T03:07:54;6.40;99.90
2465;DHT22;1244;54.326;10.074;2023-02-03T03:10:24;6.50;99.90
2465;DHT22;1244;54.326;10.074;2023-02-03T03:12:58;6.50;99.90
2465;DHT22;1244;54.326;10.074;2023-02-03T03:15:29;6.40;99.90
2465;DHT22;1244;54.326;10.074;2023-02-03T03:18:54;6.40;99.90
2465;DHT22;1244;54.326;10.074;2023-02-03T03:21:01;6.40;99.90
2465;DHT22;1244;54.326;10.074;2023-02-03T03:23:39;6.40;99.90
2465;DHT22;1244;54.326;10.074;2023-02-03T03:28:45;6.50;99.90
2465;DHT22;1244;54.326;10.074;2023-02-03T03:31:12;6.40;99.90
2465;DHT22;1244;54.326;10.074;2023-02-03T03:33:38;6.40;99.90
2465;DHT22;1244;54.326;10.074;2023-02-03T03:36:18;6.50;99.90
2465;DHT22;1244;54.326;10.074;2023-02-03T03:38:54;6.50;99.90
2465;DHT22;1244;54.326;10.074;2023-02-03T03:41:26;6.50;99.90
2465;DHT22;1244;54.326;10.074;2023-02-03T03:43:55;6.50;99.90
2465;DHT22;1244;54.326;10.074;2023-02-03T03:46:30;6.40;99.90
2465;DHT22;1244;54.326;10.074;2023-02-03T03:49:01;6.40;99.90
2465;DHT22;1244;54.326;10.074;2023-02-03T03:51:47;6.50;99.90
2465;DHT22;1244;54.326;10.074;2023-02-03T03:54:17;6.50;99.90
2465;DHT22;1244;54.326;10.074;2023-02-03T03:56:56;6.40;99.90
2465;DHT22;1244;54.326;10.074;2023-02-03T03:59:25;6.40;99.90
2465;DHT22;1244;54.326;10.074;2023-02-03T04:01:51;6.40;99.90
2465;DHT22;1244;54.326;10.074;2023-02-03T04:04:18;6.50;99.90
2465;DHT22;1244;54.326;10.074;2023-02-03T04:06:45;6.40;99.90
2465;DHT22;1244;54.326;10.074;2023-02-03T04:09:10;6.40;99.90
2465;DHT22;1244;54.326;10.074;2023-02-03T04:11:36;6.40;99.90
2465;DHT22;1244;54.326;10.074;2023-02-03T04:14:20;6.40;99.90
2465;DHT22;1244;54.326;10.074;2023-02-03T04:16:45;6.50;99.90
2465;DHT22;1244;54.326;10.074;2023-02-03T04:19:11;6.50;99.90
2465;DHT22;1244;54.326;10.074;2023-02-03T04:21:36;6.50;99.90
2465;DHT22;1244;54.326;10.074;2023-02-03T04:24:02;6.50;99.90
2465;DHT22;1244;54.326;10.074;2023-02-03T04:26:28;6.50;99.90
2465;DHT22;1244;54.326;10.074;2023-02-03T04:28:53;6.40;99.90
2465;DHT22;1244;54.326;10.074;2023-02-03T04:31:18;6.50;99.90
2465;DHT22;1244;54.326;10.074;2023-02-03T04:33:44;6.40;99.90
2465;DHT22;1244;54.326;10.074;2023-02-03T04:36:09;6.50;99.90
2465;DHT22;1244;54.326;10.074;2023-02-03T04:38:35;6.50;99.90
2465;DHT22;1244;54.326;10.074;2023-02-03T04:41:00;6.40;99.90
2465;DHT22;1244;54.326;10.074;2023-02-03T04:43:26;6.40;99.90
2465;DHT22;1244;54.326;10.074;2023-02-03T04:45:52;6.50;99.90
2465;DHT22;1244;54.326;10.074;2023-02-03T04:48:17;6.50;99.90
2465;DHT22;1244;54.326;10.074;2023-02-03T04:50:43;6.50;99.90
2465;DHT22;1244;54.326;10.074;2023-02-03T04:53:08;6.50;99.90
2465;DHT22;1244;54.326;10.074;2023-02-03T04:55:34;6.50;99.90
2465;DHT22;1244;54.326;10.074;2023-02-03T04:58:00;6.50;99.90
2465;DHT22;1244;54.326;10.074;2023-02-03T05:00:26;6.50;99.90
2465;DHT22;1244;54.326;10.074;2023-02-03T05:02:52;6.50;99.90
2465;DHT22;1244;54.326;10.074;2023-02-03T05:05:18;6.50;99.90
2465;DHT22;1244;54.326;10.074;2023-02-03T05:07:43;6.50;99.90
2465;DHT22;1244;54.326;10.074;2023-02-03T05:10:09;6.50;99.90
2465;DHT22;1244;54.326;10.074;2023-02-03T05:12:35;6.50;99.90
2465;DHT22;1244;54.326;10.074;2023-02-03T05:15:01;6.50;99.90
2465;DHT22;1244;54.326;10.074;2023-02-03T05:17:26;6.50;99.90
2465;DHT22;1244;54.326;10.074;2023-02-03T05:19:52;6.50;99.90
2465;DHT22;1244;54.326;10.074;2023-02-03T05:22:17;6.50;99.90
2465;DHT22;1244;54.326;10.074;2023-02-03T05:24:43;6.50;99.90
2465;DHT22;1244;54.326;10.074;2023-02-03T05:27:08;6.50;99.90
2465;DHT22;1244;54.326;10.074;2023-02-03T05:29:34;6.50;99.90
2465;DHT22;1244;54.326;10.074;2023-02-03T05:31:59;6.50;99.90
2465;DHT22;1244;54.326;10.074;2023-02-03T05:34:25;6.50;99.90
2465;DHT22;1244;54.326;10.074;2023-02-03T05:36:50;6.50;99.90
2465;DHT22;1244;54.326;10.074;2023-02-03T05:39:16;6.50;99.90
2465;DHT22;1244;54.326;10.074;2023-02-03T05:41:41;6.60;99.90
2465;DHT22;1244;54.326;10.074;2023-02-03T05:44:21;6.60;99.90
2465;DHT22;1244;54.326;10.074;2023-02-03T05:46:47;6.60;99.90
2465;DHT22;1244;54.326;10.074;2023-02-03T05:49:13;6.60;99.90
2465;DHT22;1244;54.326;10.074;2023-02-03T05:51:39;6.60;99.90
2465;DHT22;1244;54.326;10.074;2023-02-03T05:54:06;6.70;99.90
2465;DHT22;1244;54.326;10.074;2023-02-03T05:56:31;6.70;99.90
2465;DHT22;1244;54.326;10.074;2023-02-03T05:58:57;6.60;99.90
2465;DHT22;1244;54.326;10.074;2023-02-03T06:01:23;6.60;99.90
2465;DHT22;1244;54.326;10.074;2023-02-03T06:03:48;6.60;99.90
2465;DHT22;1244;54.326;10.074;2023-02-03T06:06:14;6.60;99.90
2465;DHT22;1244;54.326;10.074;2023-02-03T06:08:40;6.60;99.90
2465;DHT22;1244;54.326;10.074;2023-02-03T06:11:06;6.70;99.90
2465;DHT22;1244;54.326;10.074;2023-02-03T06:13:31;6.80;99.90
2465;DHT22;1244;54.326;10.074;2023-02-03T06:15:57;6.70;99.90
2465;DHT22;1244;54.326;10.074;2023-02-03T06:18:22;6.70;99.90
2465;DHT22;1244;54.326;10.074;2023-02-03T06:20:49;6.70;99.90
2465;DHT22;1244;54.326;10.074;2023-02-03T06:23:15;6.70;99.90
2465;DHT22;1244;54.326;10.074;2023-02-03T06:25:42;6.70;99.90
2465;DHT22;1244;54.326;10.074;2023-02-03T06:28:07;6.70;99.90
2465;DHT22;1244;54.326;10.074;2023-02-03T06:30:33;6.70;99.90
2465;DHT22;1244;54.326;10.074;2023-02-03T06:32:59;6.70;99.90
2465;DHT22;1244;54.326;10.074;2023-02-03T06:35:24;6.70;99.90
2465;DHT22;1244;54.326;10.074;2023-02-03T06:37:50;6.70;99.90
2465;DHT22;1244;54.326;10.074;2023-02-03T06:40:15;6.70;99.90
2465;DHT22;1244;54.326;10.074;2023-02-03T06:42:44;6.70;99.90
2465;DHT22;1244;54.326;10.074;2023-02-03T06:45:10;6.70;99.90
2465;DHT22;1244;54.326;10.074;2023-02-03T06:47:39;6.70;99.90
2465;DHT22;1244;54.326;10.074;2023-02-03T06:50:05;6.80;99.90
2465;DHT22;1244;54.326;10.074;2023-02-03T06:52:31;6.80;99.90
2465;DHT22;1244;54.326;10.074;2023-02-03T06:54:56;6.80;99.90
2465;DHT22;1244;54.326;10.074;2023-02-03T06:57:22;6.80;99.90
2465;DHT22;1244;54.326;10.074;2023-02-03T06:59:47;6.70;99.90
2465;DHT22;1244;54.326;10.074;2023-02-03T07:02:13;6.70;99.90
2465;DHT22;1244;54.326;10.074;2023-02-03T07:04:38;6.70;99.90
2465;DHT22;1244;54.326;10.074;2023-02-03T07:07:04;6.60;99.90
2465;DHT22;1244;54.326;10.074;2023-02-03T07:09:30;6.60;99.90
2465;DHT22;1244;54.326;10.074;2023-02-03T07:11:55;6.60;99.90
2465;DHT22;1244;54.326;10.074;2023-02-03T07:14:20;6.60;99.90
2465;DHT22;1244;54.326;10.074;2023-02-03T07:16:46;6.50;99.90
2465;DHT22;1244;54.326;10.074;2023-02-03T07:19:11;6.60;99.90
2465;DHT22;1244;54.326;10.074;2023-02-03T07:21:37;6.50;99.90
2465;DHT22;1244;54.326;10.074;2023-02-03T07:24:03;6.50;99.90
2465;DHT22;1244;54.326;10.074;2023-02-03T07:26:28;6.50;99.90
2465;DHT22;1244;54.326;10.074;2023-02-03T07:28:54;6.50;99.90
2465;DHT22;1244;54.326;10.074;2023-02-03T07:31:19;6.50;99.90
2465;DHT22;1244;54.326;10.074;2023-02-03T07:33:45;6.50;99.90
2465;DHT22;1244;54.326;10.074;2023-02-03T07:36:11;6.50;99.90
2465;DHT22;1244;54.326;10.074;2023-02-03T07:38:36;6.60;99.90
2465;DHT22;1244;54.326;10.074;2023-02-03T07:41:03;6.60;99.90
2465;DHT22;1244;54.326;10.074;2023-02-03T07:43:38;6.60;99.90
2465;DHT22;1244;54.326;10.074;2023-02-03T07:46:03;6.70;99.90
2465;DHT22;1244;54.326;10.074;2023-02-03T07:48:29;6.70;99.90
2465;DHT22;1244;54.326;10.074;2023-02-03T07:50:54;6.70;99.90
2465;DHT22;1244;54.326;10.074;2023-02-03T07:53:20;6.70;99.90
2465;DHT22;1244;54.326;10.074;2023-02-03T07:55:46;6.60;99.90
2465;DHT22;1244;54.326;10.074;2023-02-03T07:58:20;6.60;99.90
2465;DHT22;1244;54.326;10.074;2023-02-03T08:00:46;6.60;99.90
2465;DHT22;1244;54.326;10.074;2023-02-03T08:03:11;6.60;99.90
2465;DHT22;1244;54.326;10.074;2023-02-03T08:05:37;6.60;99.90
2465;DHT22;1244;54.326;10.074;2023-02-03T08:08:02;6.60;99.90
2465;DHT22;1244;54.326;10.074;2023-02-03T08:10:28;6.60;99.90
2465;DHT22;1244;54.326;10.074;2023-02-03T08:13:03;6.60;99.90
2465;DHT22;1244;54.326;10.074;2023-02-03T08:15:28;6.60;99.90
2465;DHT22;1244;54.326;10.074;2023-02-03T08:17:54;6.60;99.90
2465;DHT22;1244;54.326;10.074;2023-02-03T08:20:19;6.50;99.90
2465;DHT22;1244;54.326;10.074;2023-02-03T08:22:45;6.60;99.90
2465;DHT22;1244;54.326;10.074;2023-02-03T08:25:11;6.50;99.90
2465;DHT22;1244;54.326;10.074;2023-02-03T08:27:43;6.50;99.90
2465;DHT22;1244;54.326;10.074;2023-02-03T08:30:11;6.50;99.90
2465;DHT22;1244;54.326;10.074;2023-02-03T08:32:37;6.50;99.90
2465;DHT22;1244;54.326;10.074;2023-02-03T08:35:03;6.50;99.90
2465;DHT22;1244;54.326;10.074;2023-02-03T08:37:28;6.50;99.90
2465;DHT22;1244;54.326;10.074;2023-02-03T08:40:15;6.50;99.90
2465;DHT22;1244;54.326;10.074;2023-02-03T08:42:40;6.50;99.90
2465;DHT22;1244;54.326;10.074;2023-02-03T08:45:06;6.50;99.90
2465;DHT22;1244;54.326;10.074;2023-02-03T08:47:32;6.50;99.90
2465;DHT22;1244;54.326;10.074;2023-02-03T08:49:58;6.50;99.90
2465;DHT22;1244;54.326;10.074;2023-02-03T08:55:07;6.50;99.90
2465;DHT22;1244;54.326;10.074;2023-02-03T08:57:34;6.40;99.90
2465;DHT22;1244;54.326;10.074;2023-02-03T09:00:00;6.40;99.90
2465;DHT22;1244;54.326;10.074;2023-02-03T09:02:26;6.40;99.90
2465;DHT22;1244;54.326;10.074;2023-02-03T09:05:01;6.40;99.90
2465;DHT22;1244;54.326;10.074;2023-02-03T09:07:26;6.40;99.90
2465;DHT22;1244;54.326;10.074;2023-02-03T09:09:52;6.40;99.90
2465;DHT22;1244;54.326;10.074;2023-02-03T09:12:17;6.40;99.90
2465;DHT22;1244;54.326;10.074;2023-02-03T09:14:43;6.40;99.90
2465;DHT22;1244;54.326;10.074;2023-02-03T09:17:09;6.50;99.90
2465;DHT22;1244;54.326;10.074;2023-02-03T09:19:35;6.70;99.90
2465;DHT22;1244;54.326;10.074;2023-02-03T09:22:04;6.70;99.90
2465;DHT22;1244;54.326;10.074;2023-02-03T09:24:29;6.80;99.90
2465;DHT22;1244;54.326;10.074;2023-02-03T09:26:55;6.90;99.90
2465;DHT22;1244;54.326;10.074;2023-02-03T09:29:21;6.90;99.90
2465;DHT22;1244;54.326;10.074;2023-02-03T09:31:49;6.90;99.90
2465;DHT22;1244;54.326;10.074;2023-02-03T09:34:20;7.00;99.90
2465;DHT22;1244;54.326;10.074;2023-02-03T09:36:58;7.20;99.90
2465;DHT22;1244;54.326;10.074;2023-02-03T09:39:24;7.30;99.90
2465;DHT22;1244;54.326;10.074;2023-02-03T09:41:59;7.20;99.90
2465;DHT22;1244;54.326;10.074;2023-02-03T09:45:09;7.10;99.90
2465;DHT22;1244;54.326;10.074;2023-02-03T09:47:42;7.10;99.90
2465;DHT22;1244;54.326;10.074;2023-02-03T09:50:21;6.90;99.90
2465;DHT22;1244;54.326;10.074;2023-02-03T09:52:48;6.90;99.90
2465;DHT22;1244;54.326;10.074;2023-02-03T09:55:27;6.70;99.90
2465;DHT22;1244;54.326;10.074;2023-02-03T09:58:11;6.50;99.90
2465;DHT22;1244;54.326;10.074;2023-02-03T10:00:49;6.30;99.90
2465;DHT22;1244;54.326;10.074;2023-02-03T10:03:38;6.30;99.90
2465;DHT22;1244;54.326;10.074;2023-02-03T10:06:45;6.20;99.90
2465;DHT22;1244;54.326;10.074;2023-02-03T10:12:15;6.20;99.90
2465;DHT22;1244;54.326;10.074;2023-02-03T10:15:02;6.20;99.90
2465;DHT22;1244;54.326;10.074;2023-02-03T10:17:40;6.20;99.90
2465;DHT22;1244;54.326;10.074;2023-02-03T10:22:39;6.10;99.90
2465;DHT22;1244;54.326;10.074;2023-02-03T10:27:59;6.00;99.90
2465;DHT22;1244;54.326;10.074;2023-02-03T10:30:35;6.00;99.90
2465;DHT22;1244;54.326;10.074;2023-02-03T10:33:18;6.00;99.90
2465;DHT22;1244;54.326;10.074;2023-02-03T10:35:58;6.10;99.90
2465;DHT22;1244;54.326;10.074;2023-02-03T10:41:15;6.30;99.90
2465;DHT22;1244;54.326;10.074;2023-02-03T10:43:42;6.40;99.90
2465;DHT22;1244;54.326;10.074;2023-02-03T10:46:30;6.50;99.90
2465;DHT22;1244;54.326;10.074;2023-02-03T10:49:00;6.50;99.90
2465;DHT22;1244;54.326;10.074;2023-02-03T10:51:52;6.50;99.90
2465;DHT22;1244;54.326;10.074;2023-02-03T10:54:34;6.70;99.90
2465;DHT22;1244;54.326;10.074;2023-02-03T10:57:17;6.70;99.90
2465;DHT22;1244;54.326;10.074;2023-02-03T10:59:45;6.80;99.90
2465;DHT22;1244;54.326;10.074;2023-02-03T11:02:26;6.80;99.90
2465;DHT22;1244;54.326;10.074;2023-02-03T11:07:26;6.80;99.90
2465;DHT22;1244;54.326;10.074;2023-02-03T11:09:54;6.90;99.90
2465;DHT22;1244;54.326;10.074;2023-02-03T11:12:20;6.90;99.90
2465;DHT22;1244;54.326;10.074;2023-02-03T11:14:50;7.00;99.90
2465;DHT22;1244;54.326;10.074;2023-02-03T11:17:35;7.20;99.90
2465;DHT22;1244;54.326;10.074;2023-02-03T11:20:13;7.20;99.90
2465;DHT22;1244;54.326;10.074;2023-02-03T11:22:41;7.20;99.90
2465;DHT22;1244;54.326;10.074;2023-02-03T11:25:20;7.30;99.90
2465;DHT22;1244;54.326;10.074;2023-02-03T11:27:48;7.40;99.90
2465;DHT22;1244;54.326;10.074;2023-02-03T11:30:25;7.20;99.90
2465;DHT22;1244;54.326;10.074;2023-02-03T11:32:52;7.10;99.90
2465;DHT22;1244;54.326;10.074;2023-02-03T11:35:28;7.10;99.90
2465;DHT22;1244;54.326;10.074;2023-02-03T11:38:00;7.10;99.90
2465;DHT22;1244;54.326;10.074;2023-02-03T11:40:31;7.10;99.90
2465;DHT22;1244;54.326;10.074;2023-02-03T11:43:30;7.10;99.90
2465;DHT22;1244;54.326;10.074;2023-02-03T11:46:14;7.10;99.90
2465;DHT22;1244;54.326;10.074;2023-02-03T11:51:43;7.20;99.90
2465;DHT22;1244;54.326;10.074;2023-02-03T11:54:32;7.10;99.90
2465;DHT22;1244;54.326;10.074;2023-02-03T12:10:57;6.40;99.90
2465;DHT22;1244;54.326;10.074;2023-02-03T12:16:18;6.30;99.90
2465;DHT22;1244;54.326;10.074;2023-02-03T12:22:37;6.30;99.90
2465;DHT22;1244;54.326;10.074;2023-02-03T12:33:58;6.30;99.90
2465;DHT22;1244;54.326;10.074;2023-02-03T12:36:56;6.40;99.90
2465;DHT22;1244;54.326;10.074;2023-02-03T12:50:28;6.40;99.90
2465;DHT22;1244;54.326;10.074;2023-02-03T12:52:59;6.40;99.90
2465;DHT22;1244;54.326;10.074;2023-02-03T12:55:57;6.40;99.90
2465;DHT22;1244;54.326;10.074;2023-02-03T12:58:44;6.50;99.90
2465;DHT22;1244;54.326;10.074;2023-02-03T13:03:47;6.60;99.90
2465;DHT22;1244;54.326;10.074;2023-02-03T13:08:49;6.50;99.90
2465;DHT22;1244;54.326;10.074;2023-02-03T13:11:27;6.60;99.90
2465;DHT22;1244;54.326;10.074;2023-02-03T13:17:03;6.60;99.90
2465;DHT22;1244;54.326;10.074;2023-02-03T13:19:44;6.60;99.90
2465;DHT22;1244;54.326;10.074;2023-02-03T13:22:13;6.60;99.90
2465;DHT22;1244;54.326;10.074;2023-02-03T13:24:45;6.60;99.90
2465;DHT22;1244;54.326;10.074;2023-02-03T13:30:37;6.70;99.90
2465;DHT22;1244;54.326;10.074;2023-02-03T13:39:11;6.70;99.90
2465;DHT22;1244;54.326;10.074;2023-02-03T13:43:01;6.70;99.90
2465;DHT22;1244;54.326;10.074;2023-02-03T13:44:56;6.70;99.90
2465;DHT22;1244;54.326;10.074;2023-02-03T13:47:46;6.60;99.90
2465;DHT22;1244;54.326;10.074;2023-02-03T13:50:23;6.70;99.90
2465;DHT22;1244;54.326;10.074;2023-02-03T13:55:40;6.70;99.90
2465;DHT22;1244;54.326;10.074;2023-02-03T13:58:19;6.80;99.90
2465;DHT22;1244;54.326;10.074;2023-02-03T14:06:00;6.80;99.90
2465;DHT22;1244;54.326;10.074;2023-02-03T14:17:00;6.80;99.90
2465;DHT22;1244;54.326;10.074;2023-02-03T14:24:23;6.90;99.90
2465;DHT22;1244;54.326;10.074;2023-02-03T14:26:52;6.90;99.90
2465;DHT22;1244;54.326;10.074;2023-02-03T14:31:53;7.00;99.90
2465;DHT22;1244;54.326;10.074;2023-02-03T14:34:41;6.90;99.90
2465;DHT22;1244;54.326;10.074;2023-02-03T14:42:37;6.90;99.90
2465;DHT22;1244;54.326;10.074;2023-02-03T14:45:38;6.90;99.90
2465;DHT22;1244;54.326;10.074;2023-02-03T14:54:07;6.90;99.90
2465;DHT22;1244;54.326;10.074;2023-02-03T14:59:45;6.90;99.90
2465;DHT22;1244;54.326;10.074;2023-02-03T15:02:28;6.90;99.90
2465;DHT22;1244;54.326;10.074;2023-02-03T15:07:47;6.90;99.90
2465;DHT22;1244;54.326;10.074;2023-02-03T15:10:42;6.90;99.90
2465;DHT22;1244;54.326;10.074;2023-02-03T15:13:38;6.80;99.90
2465;DHT22;1244;54.326;10.074;2023-02-03T15:16:04;6.80;99.90
2465;DHT22;1244;54.326;10.074;2023-02-03T15:18:34;6.80;99.90
2465;DHT22;1244;54.326;10.074;2023-02-03T15:21:01;6.80;99.90
2465;DHT22;1244;54.326;10.074;2023-02-03T15:23:35;6.90;99.90
2465;DHT22;1244;54.326;10.074;2023-02-03T15:26:26;6.80;99.90
2465;DHT22;1244;54.326;10.074;2023-02-03T15:31:45;6.70;99.90
2465;DHT22;1244;54.326;10.074;2023-02-03T15:37:05;6.50;99.90
2465;DHT22;1244;54.326;10.074;2023-02-03T15:40:04;6.40;99.90
2465;DHT22;1244;54.326;10.074;2023-02-03T15:42:58;6.40;99.90
2465;DHT22;1244;54.326;10.074;2023-02-03T15:50:51;6.10;99.90
2465;DHT22;1244;54.326;10.074;2023-02-03T15:55:53;6.00;99.90
2465;DHT22;1244;54.326;10.074;2023-02-03T15:58:23;5.90;99.90
2465;DHT22;1244;54.326;10.074;2023-02-03T16:01:04;5.90;99.90
2465;DHT22;1244;54.326;10.074;2023-02-03T16:03:50;5.90;99.90
2465;DHT22;1244;54.326;10.074;2023-02-03T16:06:46;5.90;99.90
2465;DHT22;1244;54.326;10.074;2023-02-03T16:12:32;5.80;99.90
2465;DHT22;1244;54.326;10.074;2023-02-03T16:14:59;5.80;99.90
2465;DHT22;1244;54.326;10.074;2023-02-03T16:22:45;5.70;99.90
2465;DHT22;1244;54.326;10.074;2023-02-03T16:25:19;5.80;99.90
2465;DHT22;1244;54.326;10.074;2023-02-03T16:28:15;5.80;99.90
2465;DHT22;1244;54.326;10.074;2023-02-03T16:31:15;5.80;99.90
2465;DHT22;1244;54.326;10.074;2023-02-03T16:34:01;5.80;99.90
2465;DHT22;1244;54.326;10.074;2023-02-03T16:36:46;5.90;99.90
2465;DHT22;1244;54.326;10.074;2023-02-03T16:39:48;5.90;99.90
2465;DHT22;1244;54.326;10.074;2023-02-03T16:42:43;5.90;99.90
2465;DHT22;1244;54.326;10.074;2023-02-03T16:45:27;5.90;99.90
2465;DHT22;1244;54.326;10.074;2023-02-03T16:48:15;5.90;99.90
2465;DHT22;1244;54.326;10.074;2023-02-03T16:51:03;5.90;99.90
2465;DHT22;1244;54.326;10.074;2023-02-03T16:53:31;6.00;99.90
2465;DHT22;1244;54.326;10.074;2023-02-03T16:56:02;6.00;99.90
2465;DHT22;1244;54.326;10.074;2023-02-03T16:58:39;6.00;99.90
2465;DHT22;1244;54.326;10.074;2023-02-03T17:01:07;6.10;99.90
2465;DHT22;1244;54.326;10.074;2023-02-03T17:03:36;6.10;99.90
2465;DHT22;1244;54.326;10.074;2023-02-03T17:06:05;6.10;99.90
2465;DHT22;1244;54.326;10.074;2023-02-03T17:08:32;6.10;99.90
2465;DHT22;1244;54.326;10.074;2023-02-03T17:11:10;6.10;99.90
2465;DHT22;1244;54.326;10.074;2023-02-03T17:13:40;6.10;99.90
2465;DHT22;1244;54.326;10.074;2023-02-03T17:16:19;6.10;99.90
2465;DHT22;1244;54.326;10.074;2023-02-03T17:18:47;6.10;99.90
2465;DHT22;1244;54.326;10.074;2023-02-03T17:21:16;6.10;99.90
2465;DHT22;1244;54.326;10.074;2023-02-03T17:23:44;6.10;99.90
2465;DHT22;1244;54.326;10.074;2023-02-03T17:26:10;6.10;99.90
2465;DHT22;1244;54.326;10.074;2023-02-03T17:28:38;6.10;99.90
2465;DHT22;1244;54.326;10.074;2023-02-03T17:31:05;6.10;99.90
2465;DHT22;1244;54.326;10.074;2023-02-03T17:33:51;6.10;99.90
2465;DHT22;1244;54.326;10.074;2023-02-03T17:36:17;6.10;99.90
2465;DHT22;1244;54.326;10.074;2023-02-03T17:38:49;6.10;99.90
2465;DHT22;1244;54.326;10.074;2023-02-03T17:41:17;6.10;99.90
2465;DHT22;1244;54.326;10.074;2023-02-03T17:43:53;6.10;99.90
2465;DHT22;1244;54.326;10.074;2023-02-03T17:46:21;6.20;99.90
2465;DHT22;1244;54.326;10.074;2023-02-03T17:48:47;6.20;99.90
2465;DHT22;1244;54.326;10.074;2023-02-03T17:51:15;6.20;99.90
2465;DHT22;1244;54.326;10.074;2023-02-03T17:53:51;6.20;99.90
2465;DHT22;1244;54.326;10.074;2023-02-03T17:56:18;6.20;99.90
2465;DHT22;1244;54.326;10.074;2023-02-03T17:58:44;6.10;99.90
2465;DHT22;1244;54.326;10.074;2023-02-03T18:01:12;6.10;99.90
2465;DHT22;1244;54.326;10.074;2023-02-03T18:03:42;6.00;99.90
2465;DHT22;1244;54.326;10.074;2023-02-03T18:06:08;6.00;99.90
2465;DHT22;1244;54.326;10.074;2023-02-03T18:08:40;6.00;99.90
2465;DHT22;1244;54.326;10.074;2023-02-03T18:11:06;5.90;99.90
2465;DHT22;1244;54.326;10.074;2023-02-03T18:13:38;5.90;99.90
2465;DHT22;1244;54.326;10.074;2023-02-03T18:16:06;5.90;99.90
2465;DHT22;1244;54.326;10.074;2023-02-03T18:18:33;5.90;99.90
2465;DHT22;1244;54.326;10.074;2023-02-03T18:21:21;5.90;99.90
2465;DHT22;1244;54.326;10.074;2023-02-03T18:23:48;5.80;99.90
2465;DHT22;1244;54.326;10.074;2023-02-03T18:26:16;5.80;99.90
2465;DHT22;1244;54.326;10.074;2023-02-03T18:28:43;5.80;99.90
2465;DHT22;1244;54.326;10.074;2023-02-03T18:31:14;5.80;99.90
2465;DHT22;1244;54.326;10.074;2023-02-03T18:33:43;5.80;99.90
2465;DHT22;1244;54.326;10.074;2023-02-03T18:36:09;5.70;99.90
2465;DHT22;1244;54.326;10.074;2023-02-03T18:38:39;5.70;99.90
2465;DHT22;1244;54.326;10.074;2023-02-03T18:41:05;5.60;99.90
2465;DHT22;1244;54.326;10.074;2023-02-03T18:43:50;5.60;99.90
2465;DHT22;1244;54.326;10.074;2023-02-03T18:46:19;5.50;99.90
2465;DHT22;1244;54.326;10.074;2023-02-03T18:48:45;5.40;99.90
2465;DHT22;1244;54.326;10.074;2023-02-03T18:51:13;5.40;99.90
2465;DHT22;1244;54.326;10.074;2023-02-03T18:53:48;5.40;99.90
2465;DHT22;1244;54.326;10.074;2023-02-03T18:56:19;5.30;99.90
2465;DHT22;1244;54.326;10.074;2023-02-03T18:58:45;5.20;99.90